Time;durP1;ratioP1;P1;durP2;ratioP2;P2;SDS_P1;SDS_P2;PMS_P1;PMS_P2;Temp;Humidity;BMP_temperature;BMP_pressure;BME280_temperature;BME280_humidity;BME280_pressure;Samples;Min_cycle;Max_cycle;Signal;HPM_P1;HPM_P2
2021/01/21 00:02:15;;;;;;;68.40;32.72;;;-4.60;63.70;;;;;;5098122;28;20457;-53
2021/01/21 00:04:40;;;;;;;69.18;33.65;;;-4.70;63.60;;;;;;5097801;28;20107;-54
2021/01/21 00:07:06;;;;;;;68.45;34.08;;;-4.60;64.00;;;;;;5098480;28;20182;-53
2021/01/21 00:09:32;;;;;;;71.10;33.95;;;-4.60;64.00;;;;;;5098091;28;20433;-52
2021/01/21 00:11:58;;;;;;;74.22;35.65;;;-4.60;63.90;;;;;;5097457;28;20051;-56
2021/01/21 00:14:24;;;;;;;74.00;36.05;;;-4.50;64.00;;;;;;5097772;28;20055;-49
2021/01/21 00:16:50;;;;;;;75.13;36.10;;;-4.50;64.10;;;;;;5097726;28;20349;-48
2021/01/21 00:19:15;;;;;;;71.60;33.85;;;-4.50;64.10;;;;;;5097851;28;20012;-48
2021/01/21 00:21:41;;;;;;;72.90;34.50;;;-4.50;64.70;;;;;;5097670;28;20047;-47
2021/01/21 00:24:07;;;;;;;80.22;35.88;;;-4.50;64.10;;;;;;5095267;28;20024;-47
2021/01/21 00:26:33;;;;;;;73.20;34.05;;;-4.50;64.30;;;;;;5097306;28;20350;-47
2021/01/21 00:28:59;;;;;;;84.28;36.95;;;-4.40;64.60;;;;;;5097807;28;20070;-47
2021/01/21 00:31:25;;;;;;;73.65;33.95;;;-4.40;64.60;;;;;;5097794;28;20059;-50
2021/01/21 00:33:51;;;;;;;61.45;28.17;;;-4.40;64.60;;;;;;5096975;28;20315;-48
2021/01/21 00:36:17;;;;;;;64.47;29.88;;;-4.50;64.70;;;;;;5097049;28;20077;-51
2021/01/21 00:38:43;;;;;;;75.43;33.28;;;-4.50;64.70;;;;;;5097152;28;20131;-47
2021/01/21 00:41:08;;;;;;;65.97;29.70;;;-4.50;64.80;;;;;;5097238;28;20119;-48
2021/01/21 00:43:35;;;;;;;73.93;31.08;;;-4.50;64.90;;;;;;5097534;28;20114;-47
2021/01/21 00:46:01;;;;;;;69.88;30.00;;;-4.50;65.00;;;;;;5096677;28;20016;-48
2021/01/21 00:48:27;;;;;;;69.05;29.58;;;-4.50;65.20;;;;;;5096178;28;20020;-48
2021/01/21 00:50:53;;;;;;;77.13;34.30;;;-4.50;65.30;;;;;;5097045;28;20523;-47
2021/01/21 00:53:19;;;;;;;77.57;35.15;;;-4.50;65.40;;;;;;5096997;28;20034;-47
2021/01/21 00:55:45;;;;;;;64.50;29.55;;;-4.40;65.50;;;;;;5096209;28;20673;-49
2021/01/21 00:58:10;;;;;;;70.13;31.48;;;-4.40;65.50;;;;;;5097272;28;20020;-48
2021/01/21 01:00:36;;;;;;;75.55;33.95;;;-4.40;65.50;;;;;;5096635;28;20133;-48
2021/01/21 01:03:08;;;;;;;64.40;31.08;;;-4.40;65.50;;;;;;5094226;28;20016;-48
2021/01/21 01:05:34;;;;;;;61.38;27.45;;;-4.40;65.80;;;;;;5097792;28;20092;-47
2021/01/21 01:08:00;;;;;;;72.80;32.00;;;-4.40;65.60;;;;;;5098068;28;20027;-49
2021/01/21 01:10:26;;;;;;;70.55;34.22;;;-4.30;65.80;;;;;;5096962;28;20032;-50
2021/01/21 01:12:52;;;;;;;72.30;34.72;;;-4.30;65.80;;;;;;5094183;28;20016;-51
2021/01/21 01:15:25;;;;;;;76.07;37.08;;;-4.30;65.80;;;;;;5096838;28;20035;-49
2021/01/21 01:17:51;;;;;;;77.00;33.88;;;-4.30;66.00;;;;;;5096486;28;20038;-47
2021/01/21 01:20:16;;;;;;;79.30;34.17;;;-4.30;66.00;;;;;;5096869;28;20032;-52
2021/01/21 01:22:53;;;;;;;64.88;28.40;;;-4.30;66.00;;;;;;5096309;28;20109;-51
2021/01/21 01:25:20;;;;;;;65.65;29.48;;;-4.40;66.10;;;;;;5094375;28;20054;-49
2021/01/21 01:27:46;;;;;;;74.63;30.15;;;-4.40;66.10;;;;;;5098133;28;20081;-48
2021/01/21 01:30:13;;;;;;;70.75;28.30;;;-4.40;66.10;;;;;;5096940;28;20024;-49
2021/01/21 01:32:40;;;;;;;60.42;26.77;;;-4.40;66.30;;;;;;5095984;28;20048;-49
2021/01/21 01:35:07;;;;;;;76.15;29.90;;;-4.40;66.40;;;;;;5096647;28;20089;-47
2021/01/21 01:37:33;;;;;;;63.85;27.25;;;-4.40;66.40;;;;;;5094654;28;20024;-49
2021/01/21 01:39:59;;;;;;;57.28;25.45;;;-4.40;66.60;;;;;;5095825;28;20036;-47
2021/01/21 01:42:25;;;;;;;58.55;25.65;;;-4.40;66.60;;;;;;5096591;28;20028;-50
2021/01/21 01:44:51;;;;;;;57.67;25.17;;;-4.40;66.60;;;;;;5096087;28;20359;-47
2021/01/21 01:47:18;;;;;;;49.95;23.58;;;-4.40;66.60;;;;;;5095048;28;20073;-52
2021/01/21 01:49:45;;;;;;;51.22;23.40;;;-4.40;66.60;;;;;;5097056;28;20063;-52
2021/01/21 01:52:11;;;;;;;50.50;24.25;;;-4.40;66.60;;;;;;5097931;28;20024;-48
2021/01/21 01:54:39;;;;;;;51.47;22.75;;;-4.30;66.60;;;;;;5096066;28;20069;-49
2021/01/21 01:57:05;;;;;;;51.60;23.40;;;-4.30;66.60;;;;;;5096513;28;20055;-51
2021/01/21 01:59:33;;;;;;;52.78;23.20;;;-4.30;66.60;;;;;;5095770;28;20329;-52
2021/01/21 02:02:00;;;;;;;53.65;24.23;;;-4.30;66.50;;;;;;5093423;28;20421;-51
2021/01/21 02:04:25;;;;;;;45.97;22.02;;;-4.30;66.50;;;;;;5095855;28;20426;-52
2021/01/21 02:06:51;;;;;;;53.75;23.98;;;-4.20;66.50;;;;;;5095861;28;20016;-52
2021/01/21 02:09:17;;;;;;;54.97;24.55;;;-4.20;66.40;;;;;;5094133;28;20427;-50
2021/01/21 02:11:49;;;;;;;48.05;23.35;;;-4.20;66.30;;;;;;5095527;28;20024;-51
2021/01/21 02:14:35;;;;;;;44.47;23.23;;;-4.20;66.20;;;;;;5095703;28;20024;-51
2021/01/21 02:17:07;;;;;;;46.60;22.02;;;-4.20;66.10;;;;;;5080419;28;20032;-50
2021/01/21 02:19:47;;;;;;;49.15;24.08;;;-4.20;66.00;;;;;;5095489;28;20038;-51
2021/01/21 02:22:35;;;;;;;50.55;23.30;;;-4.20;66.00;;;;;;5094742;28;20040;-50
2021/01/21 02:25:20;;;;;;;45.88;21.25;;;-4.20;66.00;;;;;;5092326;28;20016;-48
2021/01/21 02:27:46;;;;;;;46.70;20.27;;;-4.20;65.90;;;;;;5093245;28;20433;-49
2021/01/21 02:30:23;;;;;;;46.97;22.40;;;-4.20;65.70;;;;;;5095490;28;20027;-50
2021/01/21 02:33:16;;;;;;;43.42;20.55;;;-4.30;65.60;;;;;;5093790;28;20333;-52
2021/01/21 02:35:44;;;;;;;46.10;20.35;;;-4.30;65.70;;;;;;5094674;28;20434;-50
2021/01/21 02:38:12;;;;;;;44.20;20.65;;;-4.30;65.70;;;;;;5095234;28;20057;-50
2021/01/21 02:40:41;;;;;;;44.95;20.75;;;-4.40;65.80;;;;;;5094850;28;20122;-47
2021/01/21 02:43:11;;;;;;;46.55;23.55;;;-4.40;65.90;;;;;;5095255;28;20047;-48
2021/01/21 02:45:36;;;;;;;44.22;21.48;;;-4.40;66.00;;;;;;5091758;28;20024;-46
2021/01/21 02:48:03;;;;;;;46.08;21.35;;;-4.40;66.10;;;;;;5094346;28;20077;-48
2021/01/21 02:50:29;;;;;;;41.53;20.67;;;-4.40;66.40;;;;;;5094674;28;20110;-47
2021/01/21 02:53:00;;;;;;;38.92;20.25;;;-4.40;66.50;;;;;;5092079;28;20409;-49
2021/01/21 02:55:53;;;;;;;49.25;21.20;;;-4.30;66.60;;;;;;5094212;28;20454;-52
2021/01/21 02:58:31;;;;;;;48.28;21.98;;;-4.30;66.60;;;;;;5092597;28;20108;-50
2021/01/21 03:01:01;;;;;;;42.15;20.55;;;-4.20;66.50;;;;;;5091688;28;20089;-48
2021/01/21 03:03:28;;;;;;;50.63;22.38;;;-4.20;66.60;;;;;;5093231;28;20036;-48
2021/01/21 03:05:58;;;;;;;50.30;21.50;;;-4.20;66.50;;;;;;5092631;28;20054;-48
2021/01/21 03:08:26;;;;;;;40.60;21.30;;;-4.20;66.30;;;;;;5094665;28;20460;-48
2021/01/21 03:11:05;;;;;;;41.28;20.58;;;-4.10;66.40;;;;;;5093775;28;20032;-50
2021/01/21 03:13:30;;;;;;;48.08;22.13;;;-4.10;66.30;;;;;;5093637;28;20028;-49
2021/01/21 03:15:56;;;;;;;43.40;20.67;;;-4.10;66.30;;;;;;5093446;28;20024;-49
2021/01/21 03:18:22;;;;;;;45.83;19.38;;;-4.10;66.40;;;;;;5094794;28;20042;-47
2021/01/21 03:20:47;;;;;;;40.95;20.05;;;-4.10;66.40;;;;;;5094205;28;20515;-47
2021/01/21 03:23:13;;;;;;;37.40;18.15;;;-4.10;66.40;;;;;;5094401;28;20024;-48
2021/01/21 03:25:39;;;;;;;42.92;21.20;;;-4.10;66.50;;;;;;5092943;28;20071;-50
2021/01/21 03:28:04;;;;;;;45.67;21.80;;;-4.10;66.40;;;;;;5095418;28;20081;-49
2021/01/21 03:30:30;;;;;;;44.45;22.05;;;-4.10;66.50;;;;;;5094827;28;20024;-47
2021/01/21 03:32:59;;;;;;;47.83;21.35;;;-4.00;66.60;;;;;;5094118;28;20032;-48
2021/01/21 03:35:25;;;;;;;46.72;21.13;;;-4.10;66.60;;;;;;5093467;28;20306;-48
2021/01/21 03:37:50;;;;;;;41.88;21.75;;;-4.00;67.30;;;;;;5093631;28;20035;-49
2021/01/21 03:40:16;;;;;;;46.92;21.17;;;-4.00;66.90;;;;;;5093696;28;20047;-54
2021/01/21 03:42:42;;;;;;;44.53;20.20;;;-4.00;67.00;;;;;;5093423;28;20077;-51
2021/01/21 03:45:08;;;;;;;42.47;20.50;;;-4.00;67.20;;;;;;5093846;28;20333;-50
2021/01/21 03:47:34;;;;;;;45.17;21.05;;;-4.00;67.40;;;;;;5093769;28;20028;-49
2021/01/21 03:49:59;;;;;;;41.78;19.45;;;-4.00;67.40;;;;;;5091160;28;20035;-47
2021/01/21 03:52:25;;;;;;;46.70;20.35;;;-4.00;67.60;;;;;;5094200;28;20450;-51
2021/01/21 03:54:51;;;;;;;43.47;20.95;;;-3.90;67.70;;;;;;5093127;28;20031;-47
2021/01/21 03:57:16;;;;;;;42.85;21.38;;;-3.90;67.70;;;;;;5094213;28;20020;-49
2021/01/21 03:59:42;;;;;;;45.78;20.13;;;-3.90;67.90;;;;;;5093242;28;20036;-50
2021/01/21 04:02:08;;;;;;;41.55;19.88;;;-3.90;68.00;;;;;;5093804;28;20039;-47
2021/01/21 04:04:33;;;;;;;46.70;21.95;;;-3.90;68.10;;;;;;5093933;28;20024;-47
2021/01/21 04:06:59;;;;;;;44.55;21.05;;;-3.80;68.10;;;;;;5093675;28;20020;-47
2021/01/21 04:09:25;;;;;;;46.25;22.50;;;-3.80;68.20;;;;;;5094004;28;20028;-47
2021/01/21 04:11:52;;;;;;;47.63;22.92;;;-3.80;68.10;;;;;;5093999;28;20272;-49
2021/01/21 04:14:17;;;;;;;47.30;22.13;;;-3.70;68.20;;;;;;5093582;28;20203;-47
2021/01/21 04:16:43;;;;;;;45.58;21.20;;;-3.70;68.30;;;;;;5093561;28;20402;-53
2021/01/21 04:19:09;;;;;;;43.13;21.08;;;-3.70;68.30;;;;;;5093802;28;20368;-48
2021/01/21 04:21:34;;;;;;;42.85;21.05;;;-3.70;68.30;;;;;;5093648;28;20059;-48
2021/01/21 04:24:00;;;;;;;49.33;23.17;;;-3.70;68.40;;;;;;5098164;28;20032;-47
2021/01/21 04:26:27;;;;;;;43.72;21.95;;;-3.60;68.60;;;;;;5098836;28;20031;-49
2021/01/21 04:28:53;;;;;;;44.22;21.95;;;-3.60;68.60;;;;;;5098771;28;20082;-48
2021/01/21 04:31:19;;;;;;;46.58;20.52;;;-3.60;68.60;;;;;;5098998;28;20028;-49
2021/01/21 04:33:44;;;;;;;50.33;23.55;;;-3.60;68.70;;;;;;5098888;28;20067;-48
2021/01/21 04:36:10;;;;;;;46.78;21.05;;;-3.60;68.70;;;;;;5098542;28;20020;-52
2021/01/21 04:38:36;;;;;;;42.00;18.90;;;-3.60;68.80;;;;;;5098944;28;20063;-48
2021/01/21 04:41:02;;;;;;;48.80;21.70;;;-3.60;69.00;;;;;;5098693;28;20114;-50
2021/01/21 04:43:28;;;;;;;44.35;20.77;;;-3.60;69.00;;;;;;5098685;28;20047;-48
2021/01/21 04:45:55;;;;;;;51.20;22.17;;;-3.60;69.30;;;;;;5098281;28;20172;-50
2021/01/21 04:48:21;;;;;;;49.92;21.77;;;-3.70;69.30;;;;;;5098799;28;20115;-48
2021/01/21 04:50:48;;;;;;;49.53;21.55;;;-3.70;69.30;;;;;;5097991;28;20031;-48
2021/01/21 04:53:16;;;;;;;41.30;19.35;;;-3.70;69.60;;;;;;5098301;28;20031;-47
2021/01/21 04:55:46;;;;;;;42.25;20.67;;;-3.70;69.60;;;;;;5097853;28;20034;-48
2021/01/21 04:58:37;;;;;;;48.63;20.30;;;-3.70;69.70;;;;;;5098740;28;20024;-49
2021/01/21 05:01:03;;;;;;;46.90;19.92;;;-3.70;69.90;;;;;;5097822;28;20043;-47
2021/01/21 05:03:29;;;;;;;45.72;19.92;;;-3.70;70.20;;;;;;5098378;28;20338;-48
2021/01/21 05:05:55;;;;;;;50.75;22.00;;;-3.60;70.40;;;;;;5097930;28;20383;-48
2021/01/21 05:08:22;;;;;;;43.10;20.35;;;-3.70;70.40;;;;;;5098541;28;20437;-47
2021/01/21 05:10:51;;;;;;;47.15;19.13;;;-3.70;70.60;;;;;;5097451;28;20028;-48
2021/01/21 05:13:20;;;;;;;46.65;21.35;;;-3.70;70.60;;;;;;5098256;28;20039;-48
2021/01/21 05:15:46;;;;;;;42.40;19.35;;;-3.70;70.60;;;;;;5097790;28;20098;-48
2021/01/21 05:18:13;;;;;;;45.33;20.25;;;-3.70;70.80;;;;;;5098045;28;20443;-47
2021/01/21 05:20:39;;;;;;;46.50;20.92;;;-3.70;70.80;;;;;;5096963;28;20074;-48
2021/01/21 05:23:06;;;;;;;45.28;20.27;;;-3.70;71.00;;;;;;5098369;28;20056;-48
2021/01/21 05:25:32;;;;;;;47.65;21.30;;;-3.70;71.20;;;;;;5096471;28;20027;-48
2021/01/21 05:28:03;;;;;;;50.75;21.92;;;-3.70;71.40;;;;;;5097869;28;20024;-48
2021/01/21 05:30:30;;;;;;;46.70;21.27;;;-3.70;71.40;;;;;;5096270;28;20032;-47
2021/01/21 05:32:57;;;;;;;46.05;20.80;;;-3.70;71.60;;;;;;5098009;28;20051;-52
2021/01/21 05:35:24;;;;;;;48.70;21.83;;;-3.70;71.70;;;;;;5096047;28;20494;-48
2021/01/21 05:37:55;;;;;;;45.78;20.58;;;-3.70;71.70;;;;;;5097952;28;20024;-51
2021/01/21 05:40:25;;;;;;;47.00;21.33;;;-3.70;71.80;;;;;;5096967;28;20043;-48
2021/01/21 05:42:55;;;;;;;45.17;19.60;;;-3.70;71.80;;;;;;5097309;28;20252;-50
2021/01/21 05:45:23;;;;;;;50.43;19.40;;;-3.70;72.00;;;;;;5096536;28;20121;-48
2021/01/21 05:47:59;;;;;;;48.70;20.58;;;-3.70;71.90;;;;;;5097245;28;20255;-48
2021/01/21 05:50:26;;;;;;;47.75;20.42;;;-3.70;72.00;;;;;;5097003;28;20043;-49
2021/01/21 05:52:54;;;;;;;41.20;19.02;;;-3.70;72.10;;;;;;5097443;28;20111;-50
2021/01/21 05:55:23;;;;;;;46.58;20.20;;;-3.60;72.20;;;;;;5094933;28;20035;-48
2021/01/21 05:57:50;;;;;;;46.90;21.77;;;-3.60;72.20;;;;;;5095674;28;20036;-51
2021/01/21 06:00:19;;;;;;;51.10;21.13;;;-3.60;72.30;;;;;;5095877;28;20050;-51
2021/01/21 06:02:48;;;;;;;46.25;21.48;;;-3.60;72.60;;;;;;5095739;28;20023;-48
2021/01/21 06:05:18;;;;;;;43.92;21.02;;;-3.50;72.80;;;;;;5095244;28;20062;-49
2021/01/21 06:07:46;;;;;;;47.83;22.92;;;-3.50;73.00;;;;;;5095821;28;20028;-48
2021/01/21 06:10:17;;;;;;;48.15;20.73;;;-3.50;73.00;;;;;;5095577;28;20032;-52
2021/01/21 06:12:46;;;;;;;49.03;19.95;;;-3.50;73.20;;;;;;5097218;28;20073;-48
2021/01/21 06:15:16;;;;;;;45.17;21.77;;;-3.50;73.10;;;;;;5096976;28;20089;-49
2021/01/21 06:17:43;;;;;;;46.83;19.67;;;-3.40;73.20;;;;;;5096085;28;20105;-53
2021/01/21 06:20:09;;;;;;;42.08;20.08;;;-3.40;73.20;;;;;;5095455;28;20090;-49
2021/01/21 06:22:39;;;;;;;44.05;19.95;;;-3.40;73.20;;;;;;5094932;28;20052;-48
2021/01/21 06:25:06;;;;;;;45.63;21.10;;;-3.30;73.40;;;;;;5096605;28;20437;-48
2021/01/21 06:27:36;;;;;;;53.22;20.65;;;-3.30;73.40;;;;;;5096549;28;20067;-48
2021/01/21 06:30:04;;;;;;;42.30;19.45;;;-3.30;73.40;;;;;;5096696;28;20036;-51
2021/01/21 06:32:46;;;;;;;47.30;20.05;;;-3.30;73.40;;;;;;5096454;28;20028;-48
2021/01/21 06:35:15;;;;;;;53.75;21.05;;;-3.30;73.40;;;;;;5096318;28;20052;-49
2021/01/21 06:37:41;;;;;;;49.03;21.15;;;-3.20;73.60;;;;;;5087911;28;20381;-51
2021/01/21 06:40:09;;;;;;;44.55;21.45;;;-3.20;73.80;;;;;;5074607;28;20036;-52
2021/01/21 06:42:37;;;;;;;44.75;19.95;;;-3.20;73.80;;;;;;5074869;28;20024;-50
2021/01/21 06:45:05;;;;;;;44.67;20.83;;;-3.20;74.10;;;;;;5076184;28;20036;-51
2021/01/21 06:47:31;;;;;;;46.58;19.02;;;-3.20;74.10;;;;;;5073379;28;20028;-52
2021/01/21 06:50:01;;;;;;;40.88;20.40;;;-3.20;74.30;;;;;;5074352;28;20081;-51
2021/01/21 06:52:31;;;;;;;47.50;21.25;;;-3.20;74.50;;;;;;5075733;28;20020;-49
2021/01/21 06:54:58;;;;;;;47.25;21.13;;;-3.20;74.40;;;;;;5074953;28;20036;-49
2021/01/21 06:57:41;;;;;;;48.53;21.05;;;-3.20;74.60;;;;;;5090086;28;20059;-49
2021/01/21 07:00:08;;;;;;;48.58;21.92;;;-3.10;74.70;;;;;;5095210;28;20391;-53
2021/01/21 07:02:49;;;;;;;49.28;21.58;;;-3.20;74.70;;;;;;5095995;28;20024;-52
2021/01/21 07:05:20;;;;;;;52.35;22.75;;;-3.10;74.90;;;;;;5095711;28;20077;-48
2021/01/21 07:08:00;;;;;;;58.30;22.42;;;-3.10;75.00;;;;;;5096212;28;20020;-48
2021/01/21 07:10:28;;;;;;;45.67;21.80;;;-3.10;74.90;;;;;;5095606;28;20077;-48
2021/01/21 07:12:58;;;;;;;43.95;19.75;;;-3.10;75.10;;;;;;5095771;28;20071;-48
2021/01/21 07:15:39;;;;;;;44.58;21.30;;;-3.00;75.20;;;;;;5095301;28;20074;-48
2021/01/21 07:18:06;;;;;;;;;;;-3.00;75.20;;;;;;5096843;28;20121;-50
2021/01/21 07:20:33;;;;;;;44.30;19.65;;;-2.90;75.30;;;;;;5094920;28;19912;-49
2021/01/21 07:23:03;;;;;;;49.75;21.35;;;-2.90;75.40;;;;;;5095518;28;20121;-48
2021/01/21 07:25:34;;;;;;;54.58;24.25;;;-2.90;75.60;;;;;;5095864;28;20049;-48
2021/01/21 07:28:08;;;;;;;48.63;23.15;;;-2.90;75.40;;;;;;5095382;28;20115;-48
2021/01/21 07:30:38;;;;;;;53.55;23.88;;;-2.80;75.60;;;;;;5095491;28;20326;-48
2021/01/21 07:33:23;;;;;;;50.20;22.60;;;-2.70;75.70;;;;;;5095744;28;20020;-48
2021/01/21 07:35:53;;;;;;;42.35;19.83;;;-2.70;75.60;;;;;;5094998;28;20085;-49
2021/01/21 07:38:40;;;;;;;48.50;21.20;;;-2.60;75.60;;;;;;5093092;28;20060;-48
2021/01/21 07:41:06;;;;;;;46.45;20.85;;;-2.60;75.60;;;;;;5095334;28;20049;-50
2021/01/21 07:43:53;;;;;;;46.30;21.20;;;-2.60;75.50;;;;;;5095025;28;20031;-47
2021/01/21 07:46:28;;;;;;;49.03;22.20;;;-2.60;75.50;;;;;;5094971;28;20034;-48
2021/01/21 07:49:25;;;;;;;45.60;19.88;;;-2.50;75.70;;;;;;5095287;28;20031;-48
2021/01/21 07:52:05;;;;;;;44.97;19.40;;;-2.50;76.00;;;;;;5095566;28;20028;-51
2021/01/21 07:54:44;;;;;;;49.22;21.10;;;-2.50;76.20;;;;;;5095301;28;20027;-48
2021/01/21 07:57:10;;;;;;;46.67;21.65;;;-2.50;76.40;;;;;;5095296;28;20059;-49
2021/01/21 07:59:55;;;;;;;42.45;20.60;;;-2.50;76.40;;;;;;5098577;28;20031;-48
2021/01/21 08:02:21;;;;;;;49.65;23.08;;;-2.40;76.70;;;;;;5099371;28;20028;-51
2021/01/21 08:05:02;;;;;;;50.70;23.70;;;-2.40;76.70;;;;;;5096852;28;20022;-51
2021/01/21 08:07:43;;;;;;;52.15;22.90;;;-2.30;76.70;;;;;;5096459;28;20032;-51
2021/01/21 08:10:10;;;;;;;50.40;21.08;;;-2.30;76.80;;;;;;5079122;28;20059;-49
2021/01/21 08:12:35;;;;;;;51.58;23.63;;;-2.20;76.90;;;;;;5078878;28;20048;-51
2021/01/21 08:15:03;;;;;;;54.58;22.98;;;-2.10;76.90;;;;;;5078457;28;20117;-49
2021/01/21 08:17:29;;;;;;;49.45;24.42;;;-2.10;76.80;;;;;;5077538;28;20052;-49
2021/01/21 08:19:54;;;;;;;46.40;20.77;;;-2.00;76.90;;;;;;5076861;28;20410;-51
2021/01/21 08:22:20;;;;;;;55.03;26.60;;;-2.00;76.80;;;;;;5077213;28;20464;-53
2021/01/21 08:25:00;;;;;;;49.17;22.15;;;-1.90;77.10;;;;;;5076723;28;20029;-51
2021/01/21 08:27:44;;;;;;;55.30;24.08;;;-1.90;77.30;;;;;;5086016;28;20016;-56
2021/01/21 08:30:17;;;;;;;49.50;23.35;;;-1.80;77.50;;;;;;5086173;28;20020;-55
2021/01/21 08:32:44;;;;;;;55.35;25.05;;;-1.70;78.20;;;;;;5086548;28;20027;-54
2021/01/21 08:35:18;;;;;;;57.83;23.80;;;-1.70;77.50;;;;;;5090886;28;20084;-55
2021/01/21 08:37:44;;;;;;;57.35;27.10;;;-1.60;77.40;;;;;;5079777;28;20029;-56
2021/01/21 08:40:11;;;;;;;49.65;23.65;;;-1.50;77.30;;;;;;5077459;28;20040;-56
2021/01/21 08:42:37;;;;;;;57.53;23.98;;;-1.40;77.30;;;;;;5077458;28;20020;-56
2021/01/21 08:45:04;;;;;;;43.78;21.45;;;-1.30;77.30;;;;;;5078274;28;20033;-55
2021/01/21 08:47:46;;;;;;;51.03;24.08;;;-1.30;77.20;;;;;;5077946;28;20031;-55
2021/01/21 08:50:13;;;;;;;49.22;21.27;;;-1.20;77.00;;;;;;5078423;28;20378;-55
2021/01/21 08:53:19;;;;;;;57.58;24.00;;;-1.20;77.10;;;;;;5077510;28;20044;-54
2021/01/21 08:55:47;;;;;;;50.83;24.08;;;-1.10;77.00;;;;;;5052751;28;20040;-56
2021/01/21 08:58:17;;;;;;;52.95;23.77;;;-1.10;76.90;;;;;;5089032;28;20114;-54
2021/01/21 09:01:12;;;;;;;49.75;23.80;;;-1.00;76.80;;;;;;5098143;28;20043;-55
2021/01/21 09:03:48;;;;;;;50.92;24.20;;;-1.00;76.80;;;;;;5097998;28;20024;-55
2021/01/21 09:06:17;;;;;;;49.33;21.83;;;-1.00;76.70;;;;;;5098252;28;20036;-55
2021/01/21 09:08:56;;;;;;;47.17;21.08;;;-0.90;76.70;;;;;;5098129;28;20024;-54
2021/01/21 09:11:38;;;;;;;44.92;21.33;;;-0.90;76.60;;;;;;5098004;28;20306;-55
2021/01/21 09:14:05;;;;;;;47.72;23.10;;;-0.90;76.50;;;;;;5097932;28;20423;-55
2021/01/21 09:16:45;;;;;;;44.95;21.02;;;-0.80;76.70;;;;;;5097707;28;20422;-55
2021/01/21 09:19:15;;;;;;;46.05;22.33;;;-0.80;76.70;;;;;;5097523;28;20020;-54
2021/01/21 09:22:01;;;;;;;40.60;21.30;;;-0.80;76.70;;;;;;5097234;28;20044;-55
2021/01/21 09:24:28;;;;;;;42.17;20.70;;;-0.70;76.80;;;;;;5087280;28;20036;-55
2021/01/21 09:27:13;;;;;;;45.97;22.15;;;-0.70;76.70;;;;;;5093490;28;20024;-55
2021/01/21 09:30:11;;;;;;;48.47;22.77;;;-0.70;76.60;;;;;;5077076;28;20082;-55
2021/01/21 09:32:40;;;;;;;47.90;24.02;;;-0.60;76.60;;;;;;5081019;28;20039;-55
2021/01/21 09:35:11;;;;;;;44.85;21.60;;;-0.60;76.60;;;;;;5090091;28;20361;-53
2021/01/21 09:37:39;;;;;;;47.92;24.30;;;-0.60;76.60;;;;;;5093062;28;20044;-55
2021/01/21 09:40:07;;;;;;;49.88;21.23;;;-0.50;76.70;;;;;;5076673;28;20608;-54
2021/01/21 09:42:34;;;;;;;48.47;24.35;;;-0.50;76.70;;;;;;5075995;28;20067;-55
2021/01/21 09:45:00;;;;;;;50.00;23.75;;;-0.50;76.60;;;;;;5077123;28;20064;-54
2021/01/21 09:47:26;;;;;;;45.13;23.42;;;-0.40;76.70;;;;;;5077120;28;20074;-55
2021/01/21 09:49:52;;;;;;;47.10;23.73;;;-0.40;76.60;;;;;;5078809;28;20147;-56
2021/01/21 09:52:18;;;;;;;50.83;22.95;;;-0.40;76.60;;;;;;5088936;28;20032;-54
2021/01/21 09:54:44;;;;;;;47.95;24.58;;;-0.30;76.60;;;;;;5084578;28;20028;-54
2021/01/21 09:57:10;;;;;;;49.70;23.80;;;-0.30;76.60;;;;;;5076733;28;20108;-53
2021/01/21 09:59:37;;;;;;;49.35;23.35;;;-0.30;76.50;;;;;;5076143;28;20107;-55
2021/01/21 10:02:03;;;;;;;59.47;32.03;;;-0.20;76.50;;;;;;5076555;28;20078;-54
2021/01/21 10:04:29;;;;;;;51.47;26.45;;;-0.20;76.30;;;;;;5076527;28;20029;-54
2021/01/21 10:06:55;;;;;;;48.80;24.77;;;-0.20;76.30;;;;;;5090089;28;20020;-55
2021/01/21 10:09:21;;;;;;;51.13;24.52;;;-0.10;76.40;;;;;;5076758;28;20501;-54
2021/01/21 10:11:47;;;;;;;46.08;22.67;;;0.00;76.50;;;;;;5076230;28;20036;-53
2021/01/21 10:14:13;;;;;;;48.35;25.52;;;0.00;76.20;;;;;;5076232;28;20036;-54
2021/01/21 10:16:39;;;;;;;53.60;26.90;;;0.10;76.10;;;;;;5087981;28;20028;-56
2021/01/21 10:19:05;;;;;;;50.00;24.95;;;0.10;76.10;;;;;;5080497;28;20115;-55
2021/01/21 10:21:30;;;;;;;40.42;20.92;;;0.10;76.00;;;;;;5074472;28;20056;-53
2021/01/21 10:23:56;;;;;;;46.60;23.90;;;0.20;76.00;;;;;;5075679;28;20116;-53
2021/01/21 10:26:22;;;;;;;50.33;23.40;;;0.20;76.00;;;;;;5075167;28;20027;-56
2021/01/21 10:28:49;;;;;;;43.95;21.10;;;0.20;76.10;;;;;;5075774;28;20028;-54
2021/01/21 10:31:15;;;;;;;39.30;20.25;;;0.30;76.10;;;;;;5075097;28;20051;-53
2021/01/21 10:33:43;;;;;;;46.42;22.38;;;0.30;76.10;;;;;;5075081;28;20035;-52
2021/01/21 10:36:09;;;;;;;44.58;21.33;;;0.30;76.00;;;;;;5080586;28;20464;-54
2021/01/21 10:38:37;;;;;;;42.90;21.05;;;0.30;76.10;;;;;;5090834;28;20477;-54
2021/01/21 10:41:03;;;;;;;41.83;20.80;;;0.30;76.20;;;;;;5093894;28;20126;-54
2021/01/21 10:43:28;;;;;;;40.63;20.85;;;0.30;76.20;;;;;;5093908;28;20630;-56
2021/01/21 10:45:54;;;;;;;38.67;21.05;;;0.40;76.50;;;;;;5092777;28;20229;-55
2021/01/21 10:48:20;;;;;;;49.05;25.80;;;0.40;76.60;;;;;;5093556;28;20036;-55
2021/01/21 10:50:45;;;;;;;40.35;19.85;;;0.50;76.60;;;;;;5094666;28;20065;-55
2021/01/21 10:53:11;;;;;;;41.72;19.88;;;0.40;76.60;;;;;;5095386;28;20031;-52
2021/01/21 10:55:37;;;;;;;33.13;18.65;;;0.50;76.70;;;;;;5094951;28;20111;-54
2021/01/21 10:58:06;;;;;;;40.00;18.77;;;0.50;76.80;;;;;;5096571;28;20028;-54
2021/01/21 11:00:32;;;;;;;37.10;19.40;;;0.50;76.80;;;;;;5095661;28;20105;-54
2021/01/21 11:02:59;;;;;;;39.15;21.40;;;0.60;76.90;;;;;;5095953;28;20069;-52
2021/01/21 11:05:25;;;;;;;37.38;18.38;;;0.60;76.90;;;;;;5088126;28;20396;-53
2021/01/21 11:07:51;;;;;;;38.10;18.10;;;0.70;76.90;;;;;;5089281;28;20488;-49
2021/01/21 11:10:17;;;;;;;38.92;19.92;;;0.70;76.80;;;;;;5075331;28;20028;-51
2021/01/21 11:12:44;;;;;;;40.80;19.83;;;0.70;76.80;;;;;;5074955;28;20021;-53
2021/01/21 11:15:11;;;;;;;39.83;20.60;;;0.70;76.80;;;;;;5075720;28;20393;-55
2021/01/21 11:17:36;;;;;;;46.78;24.83;;;0.70;76.80;;;;;;5075428;28;20016;-54
2021/01/21 11:20:04;;;;;;;40.05;19.35;;;0.70;76.80;;;;;;5075711;28;20051;-54
2021/01/21 11:22:30;;;;;;;41.83;21.30;;;0.80;76.90;;;;;;5075351;28;20173;-54
2021/01/21 11:24:56;;;;;;;45.60;21.48;;;0.80;76.90;;;;;;5075080;28;20075;-54
2021/01/21 11:27:21;;;;;;;44.45;22.33;;;0.80;77.00;;;;;;5075693;28;20052;-55
2021/01/21 11:29:47;;;;;;;43.20;21.23;;;0.80;77.00;;;;;;5075265;28;20371;-52
2021/01/21 11:32:13;;;;;;;45.80;20.33;;;0.90;77.00;;;;;;5074284;28;20025;-54
2021/01/21 11:34:38;;;;;;;45.55;22.33;;;0.90;77.10;;;;;;5074158;28;20032;-51
2021/01/21 11:37:04;;;;;;;43.50;21.42;;;0.90;77.00;;;;;;5075318;28;20024;-53
2021/01/21 11:39:30;;;;;;;43.42;21.80;;;0.90;76.80;;;;;;5075071;28;20029;-54
2021/01/21 11:41:55;;;;;;;41.38;21.00;;;1.00;76.90;;;;;;5075026;28;20417;-53
2021/01/21 11:44:21;;;;;;;51.78;29.60;;;1.00;77.00;;;;;;5074985;28;20028;-54
2021/01/21 11:46:47;;;;;;;47.33;23.23;;;1.10;76.70;;;;;;5073591;28;20578;-53
2021/01/21 11:49:12;;;;;;;41.00;22.15;;;1.10;76.50;;;;;;5074636;28;20036;-51
2021/01/21 11:51:38;;;;;;;43.78;21.65;;;1.20;76.50;;;;;;5073629;28;20117;-54
2021/01/21 11:54:04;;;;;;;46.97;22.70;;;1.20;76.50;;;;;;5072883;28;20056;-53
2021/01/21 11:56:30;;;;;;;45.53;24.63;;;1.30;76.30;;;;;;5073293;28;20032;-53
2021/01/21 11:58:56;;;;;;;42.67;23.45;;;1.30;76.20;;;;;;5073382;28;20024;-51
2021/01/21 12:01:22;;;;;;;43.63;21.33;;;1.30;76.20;;;;;;5073369;28;20068;-54
2021/01/21 12:03:47;;;;;;;42.17;21.38;;;1.40;76.00;;;;;;5073882;28;20378;-53
2021/01/21 12:06:13;;;;;;;45.63;22.48;;;1.40;75.60;;;;;;5074241;28;20021;-55
2021/01/21 12:08:39;;;;;;;39.53;20.50;;;1.50;75.50;;;;;;5074419;28;20414;-53
2021/01/21 12:11:05;;;;;;;35.80;19.63;;;1.50;75.20;;;;;;5074797;28;20434;-54
2021/01/21 12:13:30;;;;;;;37.88;20.10;;;1.40;75.00;;;;;;5074967;28;20028;-50
2021/01/21 12:15:56;;;;;;;40.08;21.70;;;1.40;74.90;;;;;;5074277;28;20024;-54
2021/01/21 12:18:22;;;;;;;36.80;19.05;;;1.40;74.80;;;;;;5074740;28;20376;-51
2021/01/21 12:20:48;;;;;;;42.65;23.05;;;1.30;74.90;;;;;;5073851;28;20045;-51
2021/01/21 12:23:14;;;;;;;43.30;22.92;;;1.30;74.90;;;;;;5074367;28;20036;-54
2021/01/21 12:25:41;;;;;;;37.50;21.40;;;1.30;75.10;;;;;;5077363;28;20077;-51
2021/01/21 12:28:07;;;;;;;45.55;23.30;;;1.30;75.00;;;;;;5094788;28;20075;-53
2021/01/21 12:30:33;;;;;;;42.13;21.60;;;1.30;75.00;;;;;;5091976;28;20072;-52
2021/01/21 12:32:59;;;;;;;41.38;20.63;;;1.30;74.90;;;;;;5091553;28;20024;-52
2021/01/21 12:35:25;;;;;;;40.03;21.63;;;1.30;74.80;;;;;;5089190;28;20097;-53
2021/01/21 12:37:50;;;;;;;39.72;21.15;;;1.30;74.70;;;;;;5075383;28;20021;-53